Saint Georges, Delaware
Current Conditions -  °F | °C
As of 12:51 PM on Friday 28 Nov 2014 (Local Time) from KILG Reporting Station
Overcast Overcast  
Wind Chill: 27°   Ceiling: 5000
Heat Index: 37°   Visibility: 10mi
Dew Point: 17°   Wind: 20mph
Humidity: 44%   Direction: 330°NNW
Pressure: 30.24"   Gusts: NA
Location:  39.55°N, 75.65°W
Report Text: KILG 281751Z 33017KT 10SM OVC050 03/M08 A3024 RMK AO2 SLP242 T00281083 10050 21006 56008
Loading
Personal Weather Stations






























Interactive Weather Map New forecast layout! Learn more

10-Day Weather Forecast

Advertisements
Track Severe Weather on mobile